KBDE/BDE METAR and TAF weather

Enter ICAO airport designator
Station Type Date Time Source
KBDE METAR 2020/08/05 23:53 UTC NOAA

KBDE 052353Z AUTO 19006KT 10SM FEW070 24/13 A2995 RMK AO2 SLP143 T02440128 10267 20239 56007


Station Type Date Time Source
KBDE Decoded METAR 2020/08/05 23:53 UTC NOAA

BAUDETTE INTERNATIONAL AIRPORT, MN, United States (KBDE) 48-44N 94-37W 329M
Aug 05, 2020 - 07:53 PM EDT / 2020.08.05 2353 UTC
Wind: from the S (190 degrees) at 7 MPH (6 KT):0
Visibility: 10 mile(s):0
Sky conditions: mostly clear
Temperature: 75.9 F (24.4 C)
Dew Point: 55.0 F (12.8 C)
Relative Humidity: 48%
Pressure (altimeter): 29.95 in. Hg (1014 hPa)
Pressure tendency: 0.02 inches (0.7 hPa) lower than three hours ago
ob: KBDE 052353Z AUTO 19006KT 10SM FEW070 24/13 A2995 RMK AO2 SLP143 T02440128 10267 20239 56007
cycle: 0

Station Type Date Time Source
KBDE TAF UTC NOAA

Error!

Example: see airport list